sensor_id;sensor_type;location;lat;lon;timestamp;P1;durP1;ratioP1;P2;durP2;ratioP2
11988;SDS011;6054;50.966;7.094;2024-03-22T08:53:16;12.30;;;9.23;;
11988;SDS011;6054;50.966;7.094;2024-03-22T10:11:42;3.50;;;2.90;;
11988;SDS011;6054;50.966;7.094;2024-03-22T10:14:10;4.38;;;3.10;;
11988;SDS011;6054;50.966;7.094;2024-03-22T10:16:39;4.43;;;2.97;;
11988;SDS011;6054;50.966;7.094;2024-03-22T10:19:12;4.10;;;2.83;;
11988;SDS011;6054;50.966;7.094;2024-03-22T10:21:39;5.32;;;3.20;;
11988;SDS011;6054;50.966;7.094;2024-03-22T10:24:14;5.22;;;3.45;;
11988;SDS011;6054;50.966;7.094;2024-03-22T10:26:40;4.95;;;3.33;;
11988;SDS011;6054;50.966;7.094;2024-03-22T10:29:15;5.85;;;3.35;;
11988;SDS011;6054;50.966;7.094;2024-03-22T10:31:45;6.18;;;3.70;;
11988;SDS011;6054;50.966;7.094;2024-03-22T10:34:35;6.65;;;3.15;;
11988;SDS011;6054;50.966;7.094;2024-03-22T10:37:21;3.90;;;3.22;;
11988;SDS011;6054;50.966;7.094;2024-03-22T10:39:52;6.57;;;3.47;;
11988;SDS011;6054;50.966;7.094;2024-03-22T10:42:39;3.88;;;3.47;;
11988;SDS011;6054;50.966;7.094;2024-03-22T10:47:58;4.82;;;4.32;;
11988;SDS011;6054;50.966;7.094;2024-03-22T10:50:30;5.72;;;4.43;;
11988;SDS011;6054;50.966;7.094;2024-03-22T10:52:59;5.30;;;4.32;;
11988;SDS011;6054;50.966;7.094;2024-03-22T10:55:32;6.30;;;4.43;;
11988;SDS011;6054;50.966;7.094;2024-03-22T10:58:03;7.05;;;4.65;;
11988;SDS011;6054;50.966;7.094;2024-03-22T11:01:07;6.88;;;4.40;;
11988;SDS011;6054;50.966;7.094;2024-03-22T11:04:16;6.22;;;4.47;;
11988;SDS011;6054;50.966;7.094;2024-03-22T11:06:47;9.23;;;5.45;;
11988;SDS011;6054;50.966;7.094;2024-03-22T11:09:20;5.18;;;4.68;;
11988;SDS011;6054;50.966;7.094;2024-03-22T11:11:51;7.63;;;4.70;;
11988;SDS011;6054;50.966;7.094;2024-03-22T11:14:21;6.78;;;5.25;;
11988;SDS011;6054;50.966;7.094;2024-03-22T11:17:00;9.50;;;5.38;;
11988;SDS011;6054;50.966;7.094;2024-03-22T11:19:30;8.70;;;4.95;;
11988;SDS011;6054;50.966;7.094;2024-03-22T11:21:57;4.85;;;4.35;;
11988;SDS011;6054;50.966;7.094;2024-03-22T11:24:24;7.10;;;4.68;;
11988;SDS011;6054;50.966;7.094;2024-03-22T11:26:59;5.15;;;4.72;;
11988;SDS011;6054;50.966;7.094;2024-03-22T11:29:30;8.18;;;5.10;;
11988;SDS011;6054;50.966;7.094;2024-03-22T11:31:59;11.60;;;6.85;;
11988;SDS011;6054;50.966;7.094;2024-03-22T11:34:48;5.88;;;5.00;;
11988;SDS011;6054;50.966;7.094;2024-03-22T11:37:15;9.40;;;5.28;;
11988;SDS011;6054;50.966;7.094;2024-03-22T11:40:26;8.55;;;5.82;;
11988;SDS011;6054;50.966;7.094;2024-03-22T11:43:05;7.35;;;6.18;;
11988;SDS011;6054;50.966;7.094;2024-03-22T11:45:39;6.63;;;5.47;;
11988;SDS011;6054;50.966;7.094;2024-03-22T11:51:00;12.57;;;6.88;;
11988;SDS011;6054;50.966;7.094;2024-03-22T11:53:37;10.77;;;6.97;;
11988;SDS011;6054;50.966;7.094;2024-03-22T11:56:06;8.85;;;6.82;;
11988;SDS011;6054;50.966;7.094;2024-03-22T11:58:34;12.13;;;6.20;;
11988;SDS011;6054;50.966;7.094;2024-03-22T12:01:06;9.00;;;6.80;;
11988;SDS011;6054;50.966;7.094;2024-03-22T12:03:36;9.98;;;6.70;;
11988;SDS011;6054;50.966;7.094;2024-03-22T12:06:08;11.05;;;6.70;;
11988;SDS011;6054;50.966;7.094;2024-03-22T12:08:54;9.10;;;6.40;;
11988;SDS011;6054;50.966;7.094;2024-03-22T12:14:24;9.55;;;6.10;;
11988;SDS011;6054;50.966;7.094;2024-03-22T12:17:38;7.75;;;5.78;;
11988;SDS011;6054;50.966;7.094;2024-03-22T12:22:54;9.75;;;6.63;;
11988;SDS011;6054;50.966;7.094;2024-03-22T12:25:20;10.13;;;6.72;;
11988;SDS011;6054;50.966;7.094;2024-03-22T12:27:51;8.63;;;6.68;;
11988;SDS011;6054;50.966;7.094;2024-03-22T12:30:18;7.80;;;6.35;;
11988;SDS011;6054;50.966;7.094;2024-03-22T12:33:10;7.90;;;5.72;;
11988;SDS011;6054;50.966;7.094;2024-03-22T12:35:44;7.60;;;5.82;;
11988;SDS011;6054;50.966;7.094;2024-03-22T12:38:26;8.55;;;6.38;;
11988;SDS011;6054;50.966;7.094;2024-03-22T12:40:55;7.60;;;6.05;;
11988;SDS011;6054;50.966;7.094;2024-03-22T12:43:36;10.55;;;6.50;;
11988;SDS011;6054;50.966;7.094;2024-03-22T12:46:08;8.05;;;6.15;;
11988;SDS011;6054;50.966;7.094;2024-03-22T12:48:49;10.50;;;6.57;;
11988;SDS011;6054;50.966;7.094;2024-03-22T12:51:18;10.27;;;6.85;;
11988;SDS011;6054;50.966;7.094;2024-03-22T12:53:45;9.10;;;7.05;;
11988;SDS011;6054;50.966;7.094;2024-03-22T12:56:14;8.77;;;7.15;;
11988;SDS011;6054;50.966;7.094;2024-03-22T12:58:40;9.68;;;7.47;;
11988;SDS011;6054;50.966;7.094;2024-03-22T13:01:08;10.68;;;7.28;;
11988;SDS011;6054;50.966;7.094;2024-03-22T13:03:39;12.55;;;7.30;;
11988;SDS011;6054;50.966;7.094;2024-03-22T13:06:06;10.70;;;6.70;;
11988;SDS011;6054;50.966;7.094;2024-03-22T13:08:32;8.35;;;6.80;;
11988;SDS011;6054;50.966;7.094;2024-03-22T13:17:15;10.68;;;6.22;;
11988;SDS011;6054;50.966;7.094;2024-03-22T13:19:50;8.30;;;6.45;;
11988;SDS011;6054;50.966;7.094;2024-03-22T13:22:19;7.13;;;6.13;;
11988;SDS011;6054;50.966;7.094;2024-03-22T13:24:45;10.75;;;7.28;;
11988;SDS011;6054;50.966;7.094;2024-03-22T13:27:25;7.63;;;5.88;;
11988;SDS011;6054;50.966;7.094;2024-03-22T13:30:10;7.60;;;4.95;;
11988;SDS011;6054;50.966;7.094;2024-03-22T13:32:40;8.90;;;4.75;;
11988;SDS011;6054;50.966;7.094;2024-03-22T13:35:07;10.15;;;5.68;;
11988;SDS011;6054;50.966;7.094;2024-03-22T13:38:09;7.50;;;6.40;;
11988;SDS011;6054;50.966;7.094;2024-03-22T13:40:52;10.18;;;6.22;;
11988;SDS011;6054;50.966;7.094;2024-03-22T13:43:22;7.30;;;6.10;;
11988;SDS011;6054;50.966;7.094;2024-03-22T13:45:51;11.20;;;7.30;;
11988;SDS011;6054;50.966;7.094;2024-03-22T13:48:20;10.55;;;7.15;;
11988;SDS011;6054;50.966;7.094;2024-03-22T13:50:51;9.60;;;7.50;;
11988;SDS011;6054;50.966;7.094;2024-03-22T13:53:50;14.52;;;6.80;;
11988;SDS011;6054;50.966;7.094;2024-03-22T13:56:25;10.15;;;7.70;;
11988;SDS011;6054;50.966;7.094;2024-03-22T13:58:53;12.30;;;7.22;;
11988;SDS011;6054;50.966;7.094;2024-03-22T14:01:28;12.32;;;7.30;;
11988;SDS011;6054;50.966;7.094;2024-03-22T14:03:56;10.73;;;7.43;;
11988;SDS011;6054;50.966;7.094;2024-03-22T14:06:25;12.70;;;7.50;;
11988;SDS011;6054;50.966;7.094;2024-03-22T14:08:54;9.90;;;7.57;;
11988;SDS011;6054;50.966;7.094;2024-03-22T14:11:28;9.35;;;7.43;;
11988;SDS011;6054;50.966;7.094;2024-03-22T14:19:35;11.90;;;8.15;;
11988;SDS011;6054;50.966;7.094;2024-03-22T14:22:07;11.88;;;8.02;;
11988;SDS011;6054;50.966;7.094;2024-03-22T14:24:50;12.63;;;8.48;;
11988;SDS011;6054;50.966;7.094;2024-03-22T14:27:19;10.30;;;8.75;;
11988;SDS011;6054;50.966;7.094;2024-03-22T14:29:50;10.93;;;8.10;;
11988;SDS011;6054;50.966;7.094;2024-03-22T14:32:21;11.95;;;8.57;;
11988;SDS011;6054;50.966;7.094;2024-03-22T14:34:55;9.82;;;8.15;;
11988;SDS011;6054;50.966;7.094;2024-03-22T14:37:24;11.35;;;8.35;;
11988;SDS011;6054;50.966;7.094;2024-03-22T14:40:13;11.68;;;8.70;;
11988;SDS011;6054;50.966;7.094;2024-03-22T14:50:37;13.32;;;8.70;;
11988;SDS011;6054;50.966;7.094;2024-03-22T14:53:06;12.77;;;9.00;;
11988;SDS011;6054;50.966;7.094;2024-03-22T14:55:36;10.18;;;8.80;;
11988;SDS011;6054;50.966;7.094;2024-03-22T14:58:19;12.27;;;9.05;;
11988;SDS011;6054;50.966;7.094;2024-03-22T15:00:55;14.95;;;9.98;;
11988;SDS011;6054;50.966;7.094;2024-03-22T15:03:48;11.20;;;9.38;;
11988;SDS011;6054;50.966;7.094;2024-03-22T15:07:03;12.13;;;9.30;;
11988;SDS011;6054;50.966;7.094;2024-03-22T15:09:42;12.45;;;9.68;;
11988;SDS011;6054;50.966;7.094;2024-03-22T15:12:08;14.32;;;9.00;;
11988;SDS011;6054;50.966;7.094;2024-03-22T15:14:39;10.40;;;8.23;;
11988;SDS011;6054;50.966;7.094;2024-03-22T15:17:05;10.30;;;8.48;;
11988;SDS011;6054;50.966;7.094;2024-03-22T15:19:42;10.15;;;7.93;;
11988;SDS011;6054;50.966;7.094;2024-03-22T15:22:13;11.90;;;8.38;;
11988;SDS011;6054;50.966;7.094;2024-03-22T15:24:45;13.30;;;8.35;;
11988;SDS011;6054;50.966;7.094;2024-03-22T15:27:11;11.93;;;9.23;;
11988;SDS011;6054;50.966;7.094;2024-03-22T15:29:38;10.35;;;8.80;;
11988;SDS011;6054;50.966;7.094;2024-03-22T15:32:04;13.18;;;9.38;;
11988;SDS011;6054;50.966;7.094;2024-03-22T15:34:31;14.13;;;10.15;;
11988;SDS011;6054;50.966;7.094;2024-03-22T15:36:59;12.40;;;9.43;;
11988;SDS011;6054;50.966;7.094;2024-03-22T15:45:47;16.05;;;10.93;;
11988;SDS011;6054;50.966;7.094;2024-03-22T15:48:19;16.00;;;10.25;;
11988;SDS011;6054;50.966;7.094;2024-03-22T15:50:48;17.33;;;10.35;;
11988;SDS011;6054;50.966;7.094;2024-03-22T15:53:19;17.23;;;11.65;;
11988;SDS011;6054;50.966;7.094;2024-03-22T15:55:46;15.65;;;10.57;;
11988;SDS011;6054;50.966;7.094;2024-03-22T15:58:17;15.27;;;10.93;;
11988;SDS011;6054;50.966;7.094;2024-03-22T16:00:55;15.90;;;10.25;;
11988;SDS011;6054;50.966;7.094;2024-03-22T16:03:26;14.50;;;11.05;;
11988;SDS011;6054;50.966;7.094;2024-03-22T16:05:55;16.58;;;11.32;;
11988;SDS011;6054;50.966;7.094;2024-03-22T16:08:39;13.38;;;10.48;;
11988;SDS011;6054;50.966;7.094;2024-03-22T16:11:07;15.25;;;10.45;;
11988;SDS011;6054;50.966;7.094;2024-03-22T16:42:49;18.00;;;10.30;;
11988;SDS011;6054;50.966;7.094;2024-03-22T16:45:17;13.52;;;10.13;;
11988;SDS011;6054;50.966;7.094;2024-03-22T16:47:50;17.48;;;10.93;;
11988;SDS011;6054;50.966;7.094;2024-03-22T16:50:19;15.68;;;10.32;;
11988;SDS011;6054;50.966;7.094;2024-03-22T16:55:28;14.77;;;11.80;;
11988;SDS011;6054;50.966;7.094;2024-03-22T17:08:55;12.48;;;10.55;;
11988;SDS011;6054;50.966;7.094;2024-03-22T17:11:23;15.30;;;10.77;;
11988;SDS011;6054;50.966;7.094;2024-03-22T17:14:05;15.70;;;10.65;;
11988;SDS011;6054;50.966;7.094;2024-03-22T17:19:18;13.15;;;10.90;;
11988;SDS011;6054;50.966;7.094;2024-03-22T17:22:00;17.08;;;12.30;;
11988;SDS011;6054;50.966;7.094;2024-03-22T17:24:31;13.70;;;11.10;;
11988;SDS011;6054;50.966;7.094;2024-03-22T17:27:02;16.63;;;12.30;;
11988;SDS011;6054;50.966;7.094;2024-03-22T17:30:12;20.30;;;12.55;;
11988;SDS011;6054;50.966;7.094;2024-03-22T17:32:43;17.42;;;12.50;;
11988;SDS011;6054;50.966;7.094;2024-03-22T17:35:09;16.85;;;12.15;;
11988;SDS011;6054;50.966;7.094;2024-03-22T17:37:40;13.93;;;11.55;;
11988;SDS011;6054;50.966;7.094;2024-03-22T17:40:23;16.38;;;11.88;;
11988;SDS011;6054;50.966;7.094;2024-03-22T17:42:52;13.48;;;11.45;;
11988;SDS011;6054;50.966;7.094;2024-03-22T17:45:19;15.52;;;11.63;;
11988;SDS011;6054;50.966;7.094;2024-03-22T17:47:51;15.48;;;12.80;;
11988;SDS011;6054;50.966;7.094;2024-03-22T17:50:19;14.77;;;11.75;;
11988;SDS011;6054;50.966;7.094;2024-03-22T17:53:05;14.07;;;11.10;;
11988;SDS011;6054;50.966;7.094;2024-03-22T17:55:51;12.63;;;11.32;;
11988;SDS011;6054;50.966;7.094;2024-03-22T17:58:19;15.10;;;11.20;;
11988;SDS011;6054;50.966;7.094;2024-03-22T18:00:58;15.52;;;12.57;;
11988;SDS011;6054;50.966;7.094;2024-03-22T18:03:27;17.33;;;12.18;;
11988;SDS011;6054;50.966;7.094;2024-03-22T18:06:17;14.63;;;12.98;;
11988;SDS011;6054;50.966;7.094;2024-03-22T18:08:45;17.58;;;12.57;;
11988;SDS011;6054;50.966;7.094;2024-03-22T18:11:17;13.52;;;10.88;;
11988;SDS011;6054;50.966;7.094;2024-03-22T18:14:04;12.88;;;9.85;;
11988;SDS011;6054;50.966;7.094;2024-03-22T18:16:37;11.82;;;10.20;;
11988;SDS011;6054;50.966;7.094;2024-03-22T18:19:04;11.25;;;10.10;;
11988;SDS011;6054;50.966;7.094;2024-03-22T18:21:33;11.75;;;10.57;;
11988;SDS011;6054;50.966;7.094;2024-03-22T18:24:06;11.55;;;10.15;;
11988;SDS011;6054;50.966;7.094;2024-03-22T18:26:47;10.70;;;9.60;;
11988;SDS011;6054;50.966;7.094;2024-03-22T18:29:16;10.50;;;9.32;;
11988;SDS011;6054;50.966;7.094;2024-03-22T18:32:03;12.20;;;8.90;;
11988;SDS011;6054;50.966;7.094;2024-03-22T18:34:35;10.38;;;9.40;;
11988;SDS011;6054;50.966;7.094;2024-03-22T18:37:03;10.32;;;8.73;;
11988;SDS011;6054;50.966;7.094;2024-03-22T18:39:30;9.40;;;8.55;;
11988;SDS011;6054;50.966;7.094;2024-03-22T18:42:00;9.02;;;8.13;;
11988;SDS011;6054;50.966;7.094;2024-03-22T18:44:40;9.00;;;8.02;;
11988;SDS011;6054;50.966;7.094;2024-03-22T18:47:18;8.98;;;7.32;;
11988;SDS011;6054;50.966;7.094;2024-03-22T18:49:47;7.95;;;7.05;;
11988;SDS011;6054;50.966;7.094;2024-03-22T18:52:15;9.63;;;8.07;;
11988;SDS011;6054;50.966;7.094;2024-03-22T18:54:43;9.63;;;8.40;;
11988;SDS011;6054;50.966;7.094;2024-03-22T18:57:39;10.35;;;9.25;;
11988;SDS011;6054;50.966;7.094;2024-03-22T19:00:07;10.35;;;9.20;;
11988;SDS011;6054;50.966;7.094;2024-03-22T19:02:44;9.98;;;8.57;;
11988;SDS011;6054;50.966;7.094;2024-03-22T19:05:17;10.07;;;8.88;;
11988;SDS011;6054;50.966;7.094;2024-03-22T19:07:46;11.77;;;9.18;;
11988;SDS011;6054;50.966;7.094;2024-03-22T19:10:15;9.43;;;8.52;;
11988;SDS011;6054;50.966;7.094;2024-03-22T19:12:47;10.07;;;7.95;;
11988;SDS011;6054;50.966;7.094;2024-03-22T19:15:16;9.38;;;7.78;;
11988;SDS011;6054;50.966;7.094;2024-03-22T19:17:44;9.70;;;7.53;;
11988;SDS011;6054;50.966;7.094;2024-03-22T19:20:12;8.68;;;7.80;;
11988;SDS011;6054;50.966;7.094;2024-03-22T19:22:42;8.52;;;7.75;;
11988;SDS011;6054;50.966;7.094;2024-03-22T19:32:54;9.00;;;8.10;;
11988;SDS011;6054;50.966;7.094;2024-03-22T19:35:26;10.93;;;8.82;;
11988;SDS011;6054;50.966;7.094;2024-03-22T19:37:53;8.88;;;7.97;;
11988;SDS011;6054;50.966;7.094;2024-03-22T19:40:23;8.57;;;7.78;;
11988;SDS011;6054;50.966;7.094;2024-03-22T19:42:53;8.98;;;8.07;;
11988;SDS011;6054;50.966;7.094;2024-03-22T19:45:22;8.80;;;7.65;;
11988;SDS011;6054;50.966;7.094;2024-03-22T19:47:48;8.75;;;7.72;;
11988;SDS011;6054;50.966;7.094;2024-03-22T19:50:32;8.23;;;7.38;;
11988;SDS011;6054;50.966;7.094;2024-03-22T19:53:04;9.82;;;8.82;;
11988;SDS011;6054;50.966;7.094;2024-03-22T19:56:01;9.07;;;8.18;;
11988;SDS011;6054;50.966;7.094;2024-03-22T19:58:30;9.30;;;8.40;;
11988;SDS011;6054;50.966;7.094;2024-03-22T20:01:00;10.00;;;8.27;;
11988;SDS011;6054;50.966;7.094;2024-03-22T20:03:29;9.15;;;8.27;;
11988;SDS011;6054;50.966;7.094;2024-03-22T20:06:02;11.63;;;9.00;;
11988;SDS011;6054;50.966;7.094;2024-03-22T20:08:32;9.88;;;8.88;;
11988;SDS011;6054;50.966;7.094;2024-03-22T20:11:22;10.95;;;9.85;;
11988;SDS011;6054;50.966;7.094;2024-03-22T20:13:51;10.90;;;9.77;;
11988;SDS011;6054;50.966;7.094;2024-03-22T20:16:17;9.85;;;8.77;;
11988;SDS011;6054;50.966;7.094;2024-03-22T20:18:45;8.60;;;7.70;;
11988;SDS011;6054;50.966;7.094;2024-03-22T20:21:13;8.02;;;7.22;;
11988;SDS011;6054;50.966;7.094;2024-03-22T20:23:41;7.43;;;6.82;;
11988;SDS011;6054;50.966;7.094;2024-03-22T20:26:06;8.70;;;7.80;;
11988;SDS011;6054;50.966;7.094;2024-03-22T20:28:43;7.85;;;7.10;;
11988;SDS011;6054;50.966;7.094;2024-03-22T20:31:09;7.18;;;6.28;;
11988;SDS011;6054;50.966;7.094;2024-03-22T20:33:38;6.90;;;6.30;;
11988;SDS011;6054;50.966;7.094;2024-03-22T20:38:42;6.70;;;6.10;;
